createdAt,value
2018-11-05T00:01:55.732Z,75.70
2018-11-05T00:06:55.725Z,73.70
2018-11-05T00:09:27.067Z,73.10
2018-11-05T00:11:57.410Z,73.10
2018-11-05T00:14:24.976Z,73.60
2018-11-05T00:16:52.509Z,78.40
2018-11-05T00:19:20.301Z,78.30
2018-11-05T00:21:48.021Z,73.40
2018-11-05T00:26:43.247Z,79.10
2018-11-05T00:39:02.619Z,78.10
2018-11-05T00:41:30.748Z,74.40
2018-11-05T00:43:58.312Z,78.30
2018-11-05T00:53:50.155Z,79.40
2018-11-05T00:56:17.656Z,78.00
2018-11-05T00:58:46.452Z,79.30
2018-11-05T01:01:13.969Z,73.50
2018-11-05T01:03:41.516Z,78.90
2018-11-05T01:06:12.613Z,73.80
2018-11-05T01:11:07.730Z,73.50
2018-11-05T01:13:35.413Z,73.40
2018-11-05T01:18:30.629Z,77.90
2018-11-05T01:23:25.551Z,76.10
2018-11-05T01:25:53.099Z,78.20
2018-11-05T01:28:20.667Z,79.00
2018-11-05T01:30:48.239Z,79.00
2018-11-05T01:38:12.574Z,74.80
2018-11-05T01:40:40.633Z,77.90
2018-11-05T01:43:08.180Z,75.70
2018-11-05T01:48:03.191Z,78.50
2018-11-05T01:50:32.023Z,76.20
2018-11-05T01:52:59.519Z,75.10
2018-11-05T01:55:27.091Z,78.90
2018-11-05T01:57:54.554Z,76.20
2018-11-05T02:00:22.023Z,75.00
2018-11-05T02:02:50.297Z,73.80
2018-11-05T02:05:17.949Z,74.30
2018-11-05T02:07:46.140Z,78.20
2018-11-05T02:10:14.893Z,76.80
2018-11-05T02:12:42.470Z,77.00
2018-11-05T02:15:10.480Z,78.80
2018-11-05T02:17:38.805Z,74.10
2018-11-05T02:20:07.001Z,74.50
2018-11-05T02:25:02.496Z,74.00
2018-11-05T02:27:29.985Z,74.20
2018-11-05T02:29:57.440Z,76.40
2018-11-05T02:32:25.109Z,79.00
2018-11-05T02:34:52.565Z,74.40
2018-11-05T02:42:15.070Z,80.40
2018-11-05T02:44:43.887Z,75.10
2018-11-05T02:47:11.536Z,79.50
2018-11-05T02:52:06.717Z,75.20
2018-11-05T02:54:34.990Z,75.20
2018-11-05T02:59:31.157Z,74.80
2018-11-05T03:04:26.072Z,75.30
2018-11-05T03:06:53.764Z,75.20
2018-11-05T03:09:21.281Z,78.80
2018-11-05T03:11:48.801Z,78.60
2018-11-05T03:14:16.284Z,79.30
2018-11-05T03:19:11.776Z,78.40
2018-11-05T03:24:06.680Z,75.20
2018-11-05T03:29:01.608Z,80.80
2018-11-05T03:33:56.504Z,79.60
2018-11-05T03:38:51.891Z,75.40
2018-11-05T03:41:19.402Z,80.10
2018-11-05T03:43:47.374Z,75.30
2018-11-05T03:46:14.900Z,79.40
2018-11-05T03:51:10.062Z,75.30
2018-11-05T03:53:38.261Z,79.80
2018-11-05T03:58:33.649Z,75.30
2018-11-05T04:03:28.681Z,80.30
2018-11-05T04:05:56.291Z,80.00
2018-11-05T04:08:23.781Z,75.40
2018-11-05T04:10:51.252Z,75.40
2018-11-05T04:13:18.825Z,79.10
2018-11-05T04:18:15.258Z,78.90
2018-11-05T04:20:42.876Z,74.60
2018-11-05T04:23:10.395Z,81.80
2018-11-05T04:25:38.549Z,80.50
2018-11-05T04:28:06.343Z,75.40
2018-11-05T04:30:33.820Z,79.40
2018-11-05T04:33:01.304Z,75.40
2018-11-05T04:37:56.653Z,80.80
2018-11-05T04:42:51.742Z,80.90
2018-11-05T04:45:19.320Z,75.40
2018-11-05T04:47:46.858Z,80.00
2018-11-05T04:50:14.413Z,80.10
2018-11-05T04:55:10.097Z,75.40
2018-11-05T04:57:37.726Z,79.30
2018-11-05T05:00:12.709Z,75.80
2018-11-05T05:05:09.028Z,75.60
2018-11-05T05:07:37.136Z,75.40
2018-11-05T05:10:05.456Z,79.80
2018-11-05T05:12:32.937Z,79.60
2018-11-05T05:19:55.257Z,75.80
2018-11-05T05:22:22.808Z,76.10
2018-11-05T05:24:50.321Z,78.10
2018-11-05T05:27:17.760Z,77.00
2018-11-05T05:29:45.278Z,76.00
2018-11-05T05:32:12.956Z,80.80
2018-11-05T05:37:08.017Z,81.00
2018-11-05T05:42:04.368Z,76.00
2018-11-05T05:44:31.791Z,80.40
2018-11-05T05:46:59.365Z,79.40
2018-11-05T05:49:27.682Z,76.50
2018-11-05T05:54:22.820Z,76.50
2018-11-05T05:56:50.372Z,76.10
2018-11-05T05:59:17.935Z,76.10
2018-11-05T06:01:45.444Z,78.20
2018-11-05T06:04:12.992Z,79.60
2018-11-05T06:06:40.664Z,80.30
2018-11-05T06:09:09.426Z,80.40
2018-11-05T06:11:37.132Z,80.10
2018-11-05T06:14:05.992Z,76.90
2018-11-05T06:21:29.099Z,76.10
2018-11-05T06:23:56.615Z,78.80
2018-11-05T06:26:24.404Z,76.30
2018-11-05T06:31:20.901Z,76.10
2018-11-05T06:36:15.979Z,77.50
2018-11-05T06:38:44.556Z,80.30
2018-11-05T06:41:12.119Z,80.10
2018-11-05T06:46:07.168Z,76.60
2018-11-05T06:48:34.795Z,80.10
2018-11-05T06:51:02.860Z,80.70
2018-11-05T06:55:58.609Z,76.30
2018-11-05T07:03:21.357Z,80.90
2018-11-05T07:08:17.133Z,75.70
2018-11-05T07:10:44.883Z,80.40
2018-11-05T07:13:12.502Z,77.40
2018-11-05T07:18:08.156Z,81.70
2018-11-05T07:20:35.641Z,80.20
2018-11-05T07:30:25.969Z,78.80
2018-11-05T07:37:50.124Z,77.70
2018-11-05T07:42:46.882Z,79.10
2018-11-05T07:45:17.621Z,79.10
2018-11-05T07:52:41.977Z,80.00
2018-11-05T07:55:11.730Z,77.00
2018-11-05T07:57:40.774Z,80.80
2018-11-05T08:00:16.033Z,80.80
2018-11-05T08:02:44.311Z,76.60
2018-11-05T08:05:12.272Z,80.00
2018-11-05T08:10:08.357Z,76.70
2018-11-05T08:12:36.811Z,75.50
2018-11-05T08:15:05.372Z,78.90
2018-11-05T08:22:28.370Z,78.50
2018-11-05T08:24:56.225Z,74.10
2018-11-05T08:27:23.710Z,77.50
2018-11-05T08:29:51.165Z,74.60
2018-11-05T08:32:18.668Z,78.60
2018-11-05T08:34:46.163Z,76.00
2018-11-05T08:44:36.376Z,80.00
2018-11-05T08:54:26.224Z,79.30
2018-11-05T08:56:53.783Z,74.30
2018-11-05T08:59:21.233Z,75.60
2018-11-05T09:04:16.111Z,75.10
2018-11-05T09:06:43.608Z,79.30
2018-11-05T09:09:11.111Z,74.90
2018-11-05T09:11:39.041Z,74.80
2018-11-05T09:14:06.174Z,79.30
2018-11-05T09:16:33.677Z,74.60
2018-11-05T09:19:01.172Z,78.20
2018-11-05T09:25:20.625Z,77.70
2018-11-05T09:27:48.205Z,72.90
2018-11-05T09:30:23.460Z,73.00
2018-11-05T09:32:51.117Z,73.30
2018-11-05T09:35:18.599Z,73.50
2018-11-05T09:37:46.123Z,79.10
2018-11-05T09:40:15.801Z,73.60
2018-11-05T09:42:44.125Z,73.90
2018-11-05T09:45:15.096Z,77.40
2018-11-05T09:47:43.383Z,79.10
2018-11-05T09:50:11.378Z,75.00
2018-11-05T09:52:38.998Z,78.60
2018-11-05T09:55:07.216Z,76.20
2018-11-05T09:57:34.724Z,73.10
2018-11-05T10:00:02.549Z,73.60
2018-11-05T10:02:35.729Z,78.00
2018-11-05T10:09:58.316Z,72.90
2018-11-05T10:12:25.841Z,72.60
2018-11-05T10:17:20.892Z,76.40
2018-11-05T10:19:48.385Z,73.00
2018-11-05T10:22:15.913Z,76.00
2018-11-05T10:24:43.609Z,74.70
2018-11-05T10:27:11.078Z,74.60
2018-11-05T10:29:38.557Z,72.10
2018-11-05T10:32:06.081Z,72.10
2018-11-05T10:34:33.566Z,72.60
2018-11-05T10:39:28.489Z,73.00
2018-11-05T10:41:55.987Z,76.20
2018-11-05T10:44:23.433Z,77.10
2018-11-05T10:46:50.943Z,75.90
2018-11-05T10:49:18.388Z,72.10
2018-11-05T10:51:45.961Z,72.50
2018-11-05T10:56:40.884Z,73.90
2018-11-05T11:01:41.523Z,74.40
2018-11-05T11:04:14.693Z,71.10
2018-11-05T11:06:42.159Z,71.00
2018-11-05T11:09:09.667Z,73.50
2018-11-05T11:11:37.137Z,70.80
2018-11-05T11:14:04.644Z,75.80
2018-11-05T11:16:32.136Z,73.80
2018-11-05T11:18:59.640Z,76.20
2018-11-05T11:21:27.091Z,70.30
2018-11-05T11:23:54.599Z,69.80
2018-11-05T11:26:22.091Z,69.20
2018-11-05T11:28:49.710Z,69.00
2018-11-05T11:33:44.600Z,74.60
2018-11-05T11:36:12.065Z,68.60
2018-11-05T11:41:06.926Z,69.10
2018-11-05T11:43:34.456Z,72.30
2018-11-05T11:48:29.352Z,72.20
2018-11-05T11:50:56.914Z,69.90
2018-11-05T11:53:24.371Z,72.90
2018-11-05T11:55:51.813Z,75.20
2018-11-05T11:58:19.316Z,72.60
2018-11-05T12:03:14.284Z,70.00
2018-11-05T12:08:09.333Z,70.40
2018-11-05T12:10:37.146Z,74.70
2018-11-05T12:13:04.897Z,69.50
2018-11-05T12:15:32.414Z,73.90
2018-11-05T12:17:59.872Z,68.60
2018-11-05T12:20:27.555Z,71.60
2018-11-05T12:22:55.084Z,65.60
2018-11-05T12:25:22.646Z,69.90
2018-11-05T12:27:50.144Z,70.90
2018-11-05T12:30:19.902Z,69.00
2018-11-05T12:32:48.374Z,70.60
2018-11-05T12:35:15.848Z,67.30
2018-11-05T12:37:44.642Z,70.50
2018-11-05T12:40:13.686Z,68.80
2018-11-05T12:42:41.905Z,72.00
2018-11-05T12:47:37.530Z,72.80
2018-11-05T12:50:07.975Z,66.20
2018-11-05T12:57:30.373Z,67.00
2018-11-05T12:59:57.880Z,68.90
2018-11-05T13:02:26.153Z,71.40
2018-11-05T13:04:54.451Z,73.50
2018-11-05T13:12:17.083Z,74.20
2018-11-05T13:14:44.634Z,73.00
2018-11-05T13:19:39.676Z,69.30
2018-11-05T13:22:07.357Z,74.20
2018-11-05T13:24:34.849Z,66.90
2018-11-05T13:27:02.441Z,68.70
2018-11-05T13:31:58.418Z,63.40
2018-11-05T13:34:25.920Z,64.10
2018-11-05T13:36:53.653Z,63.50
2018-11-05T13:39:20.956Z,64.30
2018-11-05T13:44:15.904Z,65.80
2018-11-05T13:46:43.889Z,62.00
2018-11-05T13:49:11.508Z,65.10
2018-11-05T13:54:06.233Z,65.10
2018-11-05T13:56:33.864Z,62.30
2018-11-05T13:59:01.351Z,63.50
2018-11-05T14:01:28.932Z,68.60
2018-11-05T14:03:56.491Z,67.60
2018-11-05T14:06:24.017Z,63.30
2018-11-05T14:08:51.625Z,65.30
2018-11-05T14:16:14.021Z,62.00
2018-11-05T14:21:09.045Z,61.20
2018-11-05T14:23:36.534Z,60.50
2018-11-05T14:26:04.469Z,59.10
2018-11-05T14:28:32.221Z,62.60
2018-11-05T14:30:59.446Z,63.60
2018-11-05T14:33:26.928Z,61.60
2018-11-05T14:38:21.986Z,66.70
2018-11-05T14:40:49.470Z,65.30
2018-11-05T14:43:17.289Z,64.00
2018-11-05T14:45:44.599Z,63.90
2018-11-05T14:48:12.143Z,66.50
2018-11-05T14:53:07.104Z,63.60
2018-11-05T14:55:34.702Z,61.80
2018-11-05T14:58:02.312Z,62.10
2018-11-05T15:00:29.883Z,62.40
2018-11-05T15:05:25.367Z,63.70
2018-11-05T15:15:17.304Z,68.40
2018-11-05T15:17:45.209Z,67.80
2018-11-05T15:22:41.524Z,70.00
2018-11-05T15:35:01.866Z,68.30
2018-11-05T15:37:29.321Z,74.00
2018-11-05T15:39:56.897Z,70.80
2018-11-05T15:42:25.250Z,74.00
2018-11-05T15:47:20.328Z,74.30
2018-11-05T15:52:16.042Z,74.20
2018-11-05T15:54:43.430Z,71.80
2018-11-05T15:57:11.084Z,73.80
2018-11-05T15:59:38.645Z,73.70
2018-11-05T16:04:39.944Z,69.10
2018-11-05T16:07:07.989Z,69.20
2018-11-05T16:09:36.072Z,69.90
2018-11-05T16:14:31.077Z,70.20
2018-11-05T16:16:58.646Z,71.10
2018-11-05T16:19:26.151Z,70.30
2018-11-05T16:34:11.265Z,70.40
2018-11-05T16:36:38.817Z,76.50
2018-11-05T16:39:09.020Z,76.00
2018-11-05T16:44:04.712Z,76.80
2018-11-05T16:46:32.243Z,76.90
2018-11-05T16:48:59.831Z,71.50
2018-11-05T16:51:27.699Z,78.50
2018-11-05T16:56:22.827Z,74.10
2018-11-05T17:03:45.678Z,78.90
2018-11-05T17:13:36.898Z,72.70
2018-11-05T17:16:05.149Z,77.80
2018-11-05T17:21:00.215Z,79.10
2018-11-05T17:25:55.439Z,77.30
2018-11-05T17:28:22.990Z,78.30
2018-11-05T17:30:50.591Z,79.10
2018-11-05T17:33:18.121Z,77.20
2018-11-05T17:38:14.286Z,79.20
2018-11-05T17:43:09.513Z,78.10
2018-11-05T17:45:37.022Z,73.70
2018-11-05T17:48:04.637Z,73.50
2018-11-05T17:50:32.213Z,80.00
2018-11-05T17:52:59.770Z,73.40
2018-11-05T18:00:22.711Z,79.70
2018-11-05T18:05:18.711Z,78.60
2018-11-05T18:10:14.164Z,75.70
2018-11-05T18:25:01.430Z,76.30
2018-11-05T18:27:29.084Z,80.20
2018-11-05T18:32:24.160Z,79.50
2018-11-05T18:39:47.694Z,74.80
2018-11-05T18:42:15.247Z,79.30
2018-11-05T18:54:33.813Z,77.60
2018-11-05T18:57:01.497Z,75.40
2018-11-05T18:59:29.069Z,76.50
2018-11-05T19:01:56.614Z,76.20
2018-11-05T19:04:24.100Z,78.50
2018-11-05T19:06:51.673Z,78.20
2018-11-05T19:11:46.666Z,77.10
2018-11-05T19:21:49.604Z,75.50
2018-11-05T19:26:44.827Z,75.10
2018-11-05T19:29:12.449Z,75.10
2018-11-05T19:31:40.118Z,74.80
2018-11-05T19:36:35.655Z,75.10
2018-11-05T19:41:32.084Z,75.00
2018-11-05T19:43:59.548Z,75.00
2018-11-05T19:46:27.103Z,75.10
2018-11-05T19:53:49.647Z,75.10
2018-11-05T19:58:44.655Z,73.80
2018-11-05T20:01:12.323Z,74.20
2018-11-05T20:03:39.884Z,74.00
2018-11-05T20:08:34.947Z,77.40
2018-11-05T20:11:02.497Z,77.90
2018-11-05T20:17:22.958Z,75.00
2018-11-05T20:22:18.723Z,74.90
2018-11-05T20:24:46.322Z,73.80
2018-11-05T20:27:14.223Z,74.80
2018-11-05T20:32:09.960Z,74.50
2018-11-05T20:34:37.751Z,74.80
2018-11-05T20:39:32.847Z,74.40
2018-11-05T20:42:00.553Z,74.20
2018-11-05T20:44:28.864Z,74.00
2018-11-05T20:46:56.493Z,74.10
2018-11-05T20:49:24.215Z,73.90
2018-11-05T20:54:19.461Z,73.80
2018-11-05T20:56:47.127Z,73.50
2018-11-05T20:59:14.859Z,74.00
2018-11-05T21:01:42.474Z,74.10
2018-11-05T21:06:38.319Z,74.60
2018-11-05T21:09:08.721Z,74.00
2018-11-05T21:14:03.992Z,74.00
2018-11-05T21:16:32.441Z,74.80
2018-11-05T21:19:00.199Z,74.60
2018-11-05T21:21:28.902Z,74.80
2018-11-05T21:23:57.077Z,74.90
2018-11-05T21:28:52.502Z,74.60
2018-11-05T21:31:20.321Z,74.80
2018-11-05T21:36:16.332Z,73.80
2018-11-05T21:41:11.482Z,74.60
2018-11-05T21:46:06.638Z,74.60
2018-11-05T21:48:34.334Z,74.30
2018-11-05T21:51:02.024Z,74.40
2018-11-05T21:53:29.665Z,74.50
2018-11-05T21:55:57.321Z,74.60
2018-11-05T21:58:24.984Z,74.60
2018-11-05T22:00:54.749Z,74.50
2018-11-05T22:03:25.577Z,74.50
2018-11-05T22:05:53.533Z,75.20
2018-11-05T22:10:49.614Z,74.90
2018-11-05T22:13:17.404Z,74.50
2018-11-05T22:15:46.596Z,74.50
2018-11-05T22:20:42.766Z,74.00
2018-11-05T22:23:10.377Z,73.50
2018-11-05T22:25:38.029Z,73.40
2018-11-05T22:28:05.923Z,72.90
2018-11-05T22:30:33.483Z,73.10
2018-11-05T22:33:01.103Z,74.50
2018-11-05T22:35:29.310Z,74.80
2018-11-05T22:37:57.037Z,73.90
2018-11-05T22:40:24.667Z,74.20
2018-11-05T22:42:52.284Z,74.30
2018-11-05T22:50:15.885Z,73.50
2018-11-05T22:52:43.499Z,73.90
2018-11-05T22:55:11.405Z,74.10
2018-11-05T23:01:14.341Z,76.90
2018-11-05T23:03:42.047Z,74.00
2018-11-05T23:06:09.726Z,76.80
2018-11-05T23:13:32.518Z,77.30
2018-11-05T23:16:00.170Z,75.00
2018-11-05T23:18:29.362Z,77.00
2018-11-05T23:20:56.882Z,78.50
2018-11-05T23:23:24.466Z,79.80
2018-11-05T23:25:51.973Z,73.90
2018-11-05T23:28:19.677Z,79.20
2018-11-05T23:30:47.992Z,76.50
2018-11-05T23:33:16.642Z,79.20
2018-11-05T23:35:44.143Z,80.00
2018-11-05T23:52:56.627Z,77.30
2018-11-05T23:57:51.785Z,74.00
